sensor_id;sensor_type;location;lat;lon;timestamp;temperature;humidity
7167;DHT22;3625;51.762;14.320;2023-01-24T00:03:59;1.50;99.90
7167;DHT22;3625;51.762;14.320;2023-01-24T00:16:23;1.50;99.90
7167;DHT22;3625;51.762;14.320;2023-01-24T00:18:53;1.60;99.90
7167;DHT22;3625;51.762;14.320;2023-01-24T00:21:23;1.50;99.90
7167;DHT22;3625;51.762;14.320;2023-01-24T00:23:53;1.60;99.90
7167;DHT22;3625;51.762;14.320;2023-01-24T00:26:23;1.50;99.90
7167;DHT22;3625;51.762;14.320;2023-01-24T00:28:53;1.60;99.90
7167;DHT22;3625;51.762;14.320;2023-01-24T00:31:23;1.60;99.90
7167;DHT22;3625;51.762;14.320;2023-01-24T00:33:55;4.00;99.90
7167;DHT22;3625;51.762;14.320;2023-01-24T00:36:27;1.50;99.90
7167;DHT22;3625;51.762;14.320;2023-01-24T00:38:57;2.10;99.90
7167;DHT22;3625;51.762;14.320;2023-01-24T00:41:26;1.60;99.90
7167;DHT22;3625;51.762;14.320;2023-01-24T00:43:54;1.60;99.90
7167;DHT22;3625;51.762;14.320;2023-01-24T00:48:52;1.70;99.90
7167;DHT22;3625;51.762;14.320;2023-01-24T00:51:22;1.70;99.90
7167;DHT22;3625;51.762;14.320;2023-01-24T00:53:50;2.10;99.90
7167;DHT22;3625;51.762;14.320;2023-01-24T00:58:48;1.80;99.90
7167;DHT22;3625;51.762;14.320;2023-01-24T01:01:16;2.00;99.90
7167;DHT22;3625;51.762;14.320;2023-01-24T01:06:16;1.60;99.90
7167;DHT22;3625;51.762;14.320;2023-01-24T01:08:46;1.70;99.90
7167;DHT22;3625;51.762;14.320;2023-01-24T01:11:15;1.60;99.90
7167;DHT22;3625;51.762;14.320;2023-01-24T01:13:44;1.70;99.90
7167;DHT22;3625;51.762;14.320;2023-01-24T01:16:17;1.70;99.90
7167;DHT22;3625;51.762;14.320;2023-01-24T01:21:18;1.60;99.90
7167;DHT22;3625;51.762;14.320;2023-01-24T01:23:49;1.60;99.90
7167;DHT22;3625;51.762;14.320;2023-01-24T01:26:19;1.60;99.90
7167;DHT22;3625;51.762;14.320;2023-01-24T01:28:49;1.50;99.90
7167;DHT22;3625;51.762;14.320;2023-01-24T01:31:18;1.50;99.90
7167;DHT22;3625;51.762;14.320;2023-01-24T01:33:47;1.50;99.90
7167;DHT22;3625;51.762;14.320;2023-01-24T01:36:15;1.40;99.90
7167;DHT22;3625;51.762;14.320;2023-01-24T01:38:44;1.40;99.90
7167;DHT22;3625;51.762;14.320;2023-01-24T01:41:14;1.50;99.90
7167;DHT22;3625;51.762;14.320;2023-01-24T01:43:43;1.50;99.90
7167;DHT22;3625;51.762;14.320;2023-01-24T01:46:27;2.60;99.90
7167;DHT22;3625;51.762;14.320;2023-01-24T01:49:01;1.50;99.90
7167;DHT22;3625;51.762;14.320;2023-01-24T01:51:38;1.50;99.90
7167;DHT22;3625;51.762;14.320;2023-01-24T01:54:15;1.50;99.90
7167;DHT22;3625;51.762;14.320;2023-01-24T01:56:51;1.40;99.90
7167;DHT22;3625;51.762;14.320;2023-01-24T01:59:27;1.50;99.90
7167;DHT22;3625;51.762;14.320;2023-01-24T02:02:00;1.50;99.90
7167;DHT22;3625;51.762;14.320;2023-01-24T02:04:33;1.80;99.90
7167;DHT22;3625;51.762;14.320;2023-01-24T02:07:06;1.50;99.90
7167;DHT22;3625;51.762;14.320;2023-01-24T02:09:40;1.50;99.90
7167;DHT22;3625;51.762;14.320;2023-01-24T02:12:19;1.50;99.90
7167;DHT22;3625;51.762;14.320;2023-01-24T02:14:53;1.60;99.90
7167;DHT22;3625;51.762;14.320;2023-01-24T02:17:44;1.40;99.90
7167;DHT22;3625;51.762;14.320;2023-01-24T02:20:21;1.50;99.90
7167;DHT22;3625;51.762;14.320;2023-01-24T02:23:05;1.50;99.90
7167;DHT22;3625;51.762;14.320;2023-01-24T02:25:50;1.50;99.90
7167;DHT22;3625;51.762;14.320;2023-01-24T02:28:25;1.50;99.90
7167;DHT22;3625;51.762;14.320;2023-01-24T02:30:56;1.90;99.90
7167;DHT22;3625;51.762;14.320;2023-01-24T02:36:12;1.50;99.90
7167;DHT22;3625;51.762;14.320;2023-01-24T02:38:48;1.40;99.90
7167;DHT22;3625;51.762;14.320;2023-01-24T02:41:28;1.40;99.90
7167;DHT22;3625;51.762;14.320;2023-01-24T02:44:05;1.40;99.90
7167;DHT22;3625;51.762;14.320;2023-01-24T02:46:42;1.50;99.90
7167;DHT22;3625;51.762;14.320;2023-01-24T02:49:12;1.40;99.90
7167;DHT22;3625;51.762;14.320;2023-01-24T02:54:29;1.40;99.90
7167;DHT22;3625;51.762;14.320;2023-01-24T02:57:02;1.50;99.90
7167;DHT22;3625;51.762;14.320;2023-01-24T03:02:16;1.40;99.90
7167;DHT22;3625;51.762;14.320;2023-01-24T03:04:45;1.40;99.90
7167;DHT22;3625;51.762;14.320;2023-01-24T03:07:13;1.40;99.90
7167;DHT22;3625;51.762;14.320;2023-01-24T03:09:48;1.80;99.90
7167;DHT22;3625;51.762;14.320;2023-01-24T03:12:22;1.40;99.90
7167;DHT22;3625;51.762;14.320;2023-01-24T03:15:10;2.10;99.90
7167;DHT22;3625;51.762;14.320;2023-01-24T03:17:58;1.40;99.90
7167;DHT22;3625;51.762;14.320;2023-01-24T03:20:46;1.40;99.90
7167;DHT22;3625;51.762;14.320;2023-01-24T03:23:33;1.90;99.90
7167;DHT22;3625;51.762;14.320;2023-01-24T03:26:18;1.40;99.90
7167;DHT22;3625;51.762;14.320;2023-01-24T03:29:07;1.40;99.90
7167;DHT22;3625;51.762;14.320;2023-01-24T03:31:54;1.30;99.90
7167;DHT22;3625;51.762;14.320;2023-01-24T03:34:41;1.40;99.90
7167;DHT22;3625;51.762;14.320;2023-01-24T03:37:23;2.00;99.90
7167;DHT22;3625;51.762;14.320;2023-01-24T03:40:14;1.40;99.90
7167;DHT22;3625;51.762;14.320;2023-01-24T03:42:45;1.40;99.90
7167;DHT22;3625;51.762;14.320;2023-01-24T03:45:23;1.40;99.90
7167;DHT22;3625;51.762;14.320;2023-01-24T03:47:56;1.50;99.90
7167;DHT22;3625;51.762;14.320;2023-01-24T03:50:28;1.40;99.90
7167;DHT22;3625;51.762;14.320;2023-01-24T03:53:17;1.30;99.90
7167;DHT22;3625;51.762;14.320;2023-01-24T03:55:51;1.30;99.90
7167;DHT22;3625;51.762;14.320;2023-01-24T03:58:22;1.60;99.90
7167;DHT22;3625;51.762;14.320;2023-01-24T04:00:53;1.30;99.90
7167;DHT22;3625;51.762;14.320;2023-01-24T04:03:42;1.30;99.90
7167;DHT22;3625;51.762;14.320;2023-01-24T04:06:10;1.30;99.90
7167;DHT22;3625;51.762;14.320;2023-01-24T04:08:39;1.40;99.90
7167;DHT22;3625;51.762;14.320;2023-01-24T04:16:07;1.40;99.90
7167;DHT22;3625;51.762;14.320;2023-01-24T04:18:50;1.40;99.90
7167;DHT22;3625;51.762;14.320;2023-01-24T04:21:23;1.40;99.90
7167;DHT22;3625;51.762;14.320;2023-01-24T04:23:53;1.40;99.90
7167;DHT22;3625;51.762;14.320;2023-01-24T04:26:21;1.40;99.90
7167;DHT22;3625;51.762;14.320;2023-01-24T04:28:57;1.40;99.90
7167;DHT22;3625;51.762;14.320;2023-01-24T04:31:27;1.30;99.90
7167;DHT22;3625;51.762;14.320;2023-01-24T04:33:58;1.30;99.90
7167;DHT22;3625;51.762;14.320;2023-01-24T04:36:30;2.50;99.90
7167;DHT22;3625;51.762;14.320;2023-01-24T04:39:00;1.40;99.90
7167;DHT22;3625;51.762;14.320;2023-01-24T04:41:38;1.40;99.90
7167;DHT22;3625;51.762;14.320;2023-01-24T04:46:37;1.40;99.90
7167;DHT22;3625;51.762;14.320;2023-01-24T04:49:05;1.40;99.90
7167;DHT22;3625;51.762;14.320;2023-01-24T04:51:38;1.40;99.90
7167;DHT22;3625;51.762;14.320;2023-01-24T04:56:41;1.50;99.90
7167;DHT22;3625;51.762;14.320;2023-01-24T04:59:11;1.50;99.90
7167;DHT22;3625;51.762;14.320;2023-01-24T05:01:44;1.40;99.90
7167;DHT22;3625;51.762;14.320;2023-01-24T05:04:54;1.40;99.90
7167;DHT22;3625;51.762;14.320;2023-01-24T05:07:37;1.30;99.90
7167;DHT22;3625;51.762;14.320;2023-01-24T05:10:11;1.30;99.90
7167;DHT22;3625;51.762;14.320;2023-01-24T05:12:39;1.30;99.90
7167;DHT22;3625;51.762;14.320;2023-01-24T05:15:15;1.30;99.90
7167;DHT22;3625;51.762;14.320;2023-01-24T05:17:46;1.30;99.90
7167;DHT22;3625;51.762;14.320;2023-01-24T05:20:18;1.30;99.90
7167;DHT22;3625;51.762;14.320;2023-01-24T05:22:50;1.30;99.90
7167;DHT22;3625;51.762;14.320;2023-01-24T05:25:24;1.40;99.90
7167;DHT22;3625;51.762;14.320;2023-01-24T05:27:53;1.40;99.90
7167;DHT22;3625;51.762;14.320;2023-01-24T05:30:23;1.40;99.90
7167;DHT22;3625;51.762;14.320;2023-01-24T05:32:57;1.40;99.90
7167;DHT22;3625;51.762;14.320;2023-01-24T05:35:25;1.50;99.90
7167;DHT22;3625;51.762;14.320;2023-01-24T05:37:55;-0.50;99.90
7167;DHT22;3625;51.762;14.320;2023-01-24T05:40:26;1.40;99.90
7167;DHT22;3625;51.762;14.320;2023-01-24T05:42:55;1.50;99.90
7167;DHT22;3625;51.762;14.320;2023-01-24T05:45:27;1.40;99.90
7167;DHT22;3625;51.762;14.320;2023-01-24T05:47:58;1.40;99.90
7167;DHT22;3625;51.762;14.320;2023-01-24T05:50:28;1.40;99.90
7167;DHT22;3625;51.762;14.320;2023-01-24T05:53:09;1.40;99.90
7167;DHT22;3625;51.762;14.320;2023-01-24T05:55:38;1.50;99.90
7167;DHT22;3625;51.762;14.320;2023-01-24T05:58:06;1.50;99.90
7167;DHT22;3625;51.762;14.320;2023-01-24T06:00:53;1.40;99.90
7167;DHT22;3625;51.762;14.320;2023-01-24T06:03:41;1.50;99.90
7167;DHT22;3625;51.762;14.320;2023-01-24T06:06:14;2.80;99.90
7167;DHT22;3625;51.762;14.320;2023-01-24T06:08:45;2.20;99.90
7167;DHT22;3625;51.762;14.320;2023-01-24T06:11:16;1.40;99.90
7167;DHT22;3625;51.762;14.320;2023-01-24T06:13:58;2.00;99.90
7167;DHT22;3625;51.762;14.320;2023-01-24T06:16:27;1.50;99.90
7167;DHT22;3625;51.762;14.320;2023-01-24T06:18:57;1.60;99.90
7167;DHT22;3625;51.762;14.320;2023-01-24T06:21:41;1.50;99.90
7167;DHT22;3625;51.762;14.320;2023-01-24T06:24:18;1.50;99.90
7167;DHT22;3625;51.762;14.320;2023-01-24T06:27:15;1.50;99.90
7167;DHT22;3625;51.762;14.320;2023-01-24T06:29:44;1.60;99.90
7167;DHT22;3625;51.762;14.320;2023-01-24T06:32:20;1.60;99.90
7167;DHT22;3625;51.762;14.320;2023-01-24T06:35:09;1.50;99.90
7167;DHT22;3625;51.762;14.320;2023-01-24T06:37:45;1.60;99.90
7167;DHT22;3625;51.762;14.320;2023-01-24T06:40:17;1.60;99.90
7167;DHT22;3625;51.762;14.320;2023-01-24T06:42:50;1.70;99.90
7167;DHT22;3625;51.762;14.320;2023-01-24T06:45:19;1.60;99.90
7167;DHT22;3625;51.762;14.320;2023-01-24T06:47:49;1.60;99.90
7167;DHT22;3625;51.762;14.320;2023-01-24T06:50:20;1.70;99.90
7167;DHT22;3625;51.762;14.320;2023-01-24T06:52:50;1.70;99.90
7167;DHT22;3625;51.762;14.320;2023-01-24T06:55:21;1.70;99.90
7167;DHT22;3625;51.762;14.320;2023-01-24T06:57:54;1.60;99.90
7167;DHT22;3625;51.762;14.320;2023-01-24T07:02:58;1.60;99.90
7167;DHT22;3625;51.762;14.320;2023-01-24T07:18:17;1.60;99.90
7167;DHT22;3625;51.762;14.320;2023-01-24T07:20:48;1.60;99.90
7167;DHT22;3625;51.762;14.320;2023-01-24T07:23:21;1.70;99.90
7167;DHT22;3625;51.762;14.320;2023-01-24T07:25:52;1.60;99.90
7167;DHT22;3625;51.762;14.320;2023-01-24T07:28:22;1.60;99.90
7167;DHT22;3625;51.762;14.320;2023-01-24T07:35:55;1.70;99.90
7167;DHT22;3625;51.762;14.320;2023-01-24T07:50:57;1.60;99.90
7167;DHT22;3625;51.762;14.320;2023-01-24T08:01:25;1.60;99.90
7167;DHT22;3625;51.762;14.320;2023-01-24T08:24:12;1.80;99.90
7167;DHT22;3625;51.762;14.320;2023-01-24T08:26:45;1.80;99.90
7167;DHT22;3625;51.762;14.320;2023-01-24T08:34:20;1.90;99.90
7167;DHT22;3625;51.762;14.320;2023-01-24T08:39:24;1.90;99.90
7167;DHT22;3625;51.762;14.320;2023-01-24T08:41:55;2.00;99.90
7167;DHT22;3625;51.762;14.320;2023-01-24T08:54:28;2.30;99.90
7167;DHT22;3625;51.762;14.320;2023-01-24T08:59:28;2.30;99.90
7167;DHT22;3625;51.762;14.320;2023-01-24T09:04:25;2.50;99.90
7167;DHT22;3625;51.762;14.320;2023-01-24T09:06:55;2.50;99.90
7167;DHT22;3625;51.762;14.320;2023-01-24T09:11:54;2.40;99.90
7167;DHT22;3625;51.762;14.320;2023-01-24T09:14:26;2.50;99.90
7167;DHT22;3625;51.762;14.320;2023-01-24T09:24:31;2.60;99.90
7167;DHT22;3625;51.762;14.320;2023-01-24T09:42:30;3.00;99.90
7167;DHT22;3625;51.762;14.320;2023-01-24T09:45:17;3.10;99.90
7167;DHT22;3625;51.762;14.320;2023-01-24T09:47:55;3.10;99.90
7167;DHT22;3625;51.762;14.320;2023-01-24T09:50:28;3.10;99.90
7167;DHT22;3625;51.762;14.320;2023-01-24T09:53:12;3.10;99.90
7167;DHT22;3625;51.762;14.320;2023-01-24T09:58:25;3.10;99.90
7167;DHT22;3625;51.762;14.320;2023-01-24T10:01:03;3.10;99.90
7167;DHT22;3625;51.762;14.320;2023-01-24T10:06:23;3.20;99.90
7167;DHT22;3625;51.762;14.320;2023-01-24T10:09:02;3.20;99.90
7167;DHT22;3625;51.762;14.320;2023-01-24T10:11:47;3.20;99.90
7167;DHT22;3625;51.762;14.320;2023-01-24T10:14:36;3.20;99.90
7167;DHT22;3625;51.762;14.320;2023-01-24T10:17:25;3.10;99.90
7167;DHT22;3625;51.762;14.320;2023-01-24T10:20:22;3.00;99.90
7167;DHT22;3625;51.762;14.320;2023-01-24T10:23:05;3.10;99.90
7167;DHT22;3625;51.762;14.320;2023-01-24T10:25:54;3.00;99.90
7167;DHT22;3625;51.762;14.320;2023-01-24T10:28:28;3.00;99.90
7167;DHT22;3625;51.762;14.320;2023-01-24T10:31:05;3.00;99.90
7167;DHT22;3625;51.762;14.320;2023-01-24T10:33:45;3.10;99.90
7167;DHT22;3625;51.762;14.320;2023-01-24T10:36:28;3.10;99.90
7167;DHT22;3625;51.762;14.320;2023-01-24T10:39:07;3.00;99.90
7167;DHT22;3625;51.762;14.320;2023-01-24T10:44:15;2.90;99.90
7167;DHT22;3625;51.762;14.320;2023-01-24T10:50:11;2.90;99.90
7167;DHT22;3625;51.762;14.320;2023-01-24T10:52:46;2.90;99.90
7167;DHT22;3625;51.762;14.320;2023-01-24T10:55:30;2.80;99.90
7167;DHT22;3625;51.762;14.320;2023-01-24T10:58:21;2.60;99.90
7167;DHT22;3625;51.762;14.320;2023-01-24T11:00:56;2.60;99.90
7167;DHT22;3625;51.762;14.320;2023-01-24T11:03:27;2.60;99.90
7167;DHT22;3625;51.762;14.320;2023-01-24T11:05:59;3.00;99.90
7167;DHT22;3625;51.762;14.320;2023-01-24T11:08:33;2.80;99.90
7167;DHT22;3625;51.762;14.320;2023-01-24T11:11:22;-0.10;99.90
7167;DHT22;3625;51.762;14.320;2023-01-24T11:13:57;3.00;99.90
7167;DHT22;3625;51.762;14.320;2023-01-24T11:16:31;2.80;99.90
7167;DHT22;3625;51.762;14.320;2023-01-24T11:19:23;2.70;99.90
7167;DHT22;3625;51.762;14.320;2023-01-24T11:21:59;3.20;99.90
7167;DHT22;3625;51.762;14.320;2023-01-24T11:24:42;2.80;99.90
7167;DHT22;3625;51.762;14.320;2023-01-24T11:27:14;3.60;99.90
7167;DHT22;3625;51.762;14.320;2023-01-24T11:30:04;2.90;99.90
7167;DHT22;3625;51.762;14.320;2023-01-24T11:32:51;2.80;99.90
7167;DHT22;3625;51.762;14.320;2023-01-24T11:35:32;2.90;99.90
7167;DHT22;3625;51.762;14.320;2023-01-24T11:38:21;2.90;99.90
7167;DHT22;3625;51.762;14.320;2023-01-24T11:41:02;2.90;99.90
7167;DHT22;3625;51.762;14.320;2023-01-24T11:44:01;3.00;99.90
7167;DHT22;3625;51.762;14.320;2023-01-24T11:46:59;2.80;99.90
7167;DHT22;3625;51.762;14.320;2023-01-24T11:49:51;2.80;99.90
7167;DHT22;3625;51.762;14.320;2023-01-24T11:52:48;2.80;99.90
7167;DHT22;3625;51.762;14.320;2023-01-24T11:55:33;2.80;99.90
7167;DHT22;3625;51.762;14.320;2023-01-24T11:58:20;2.80;99.90
7167;DHT22;3625;51.762;14.320;2023-01-24T12:01:09;2.80;99.90
7167;DHT22;3625;51.762;14.320;2023-01-24T12:04:07;2.80;99.90
7167;DHT22;3625;51.762;14.320;2023-01-24T12:07:03;2.80;99.90
7167;DHT22;3625;51.762;14.320;2023-01-24T12:09:43;2.90;99.90
7167;DHT22;3625;51.762;14.320;2023-01-24T12:12:24;2.80;99.90
7167;DHT22;3625;51.762;14.320;2023-01-24T12:15:45;2.80;99.90
7167;DHT22;3625;51.762;14.320;2023-01-24T12:18:44;2.80;99.90
7167;DHT22;3625;51.762;14.320;2023-01-24T12:23:56;2.90;99.90
7167;DHT22;3625;51.762;14.320;2023-01-24T12:26:38;2.90;99.90
7167;DHT22;3625;51.762;14.320;2023-01-24T12:29:22;2.90;99.90
7167;DHT22;3625;51.762;14.320;2023-01-24T12:31:58;2.70;99.90
7167;DHT22;3625;51.762;14.320;2023-01-24T12:34:45;2.70;99.90
7167;DHT22;3625;51.762;14.320;2023-01-24T12:37:26;2.60;99.90
7167;DHT22;3625;51.762;14.320;2023-01-24T12:40:06;2.70;99.90
7167;DHT22;3625;51.762;14.320;2023-01-24T12:42:52;2.70;99.90
7167;DHT22;3625;51.762;14.320;2023-01-24T12:45:33;2.70;99.90
7167;DHT22;3625;51.762;14.320;2023-01-24T12:48:19;2.70;99.90
7167;DHT22;3625;51.762;14.320;2023-01-24T12:51:01;2.80;99.90
7167;DHT22;3625;51.762;14.320;2023-01-24T12:53:40;2.90;99.90
7167;DHT22;3625;51.762;14.320;2023-01-24T12:56:27;2.90;99.90
7167;DHT22;3625;51.762;14.320;2023-01-24T12:59:01;2.80;99.90
7167;DHT22;3625;51.762;14.320;2023-01-24T13:01:40;2.90;99.90
7167;DHT22;3625;51.762;14.320;2023-01-24T13:04:40;2.90;99.90
7167;DHT22;3625;51.762;14.320;2023-01-24T13:07:27;2.90;99.90
7167;DHT22;3625;51.762;14.320;2023-01-24T13:10:13;2.90;99.90
7167;DHT22;3625;51.762;14.320;2023-01-24T13:12:49;2.90;99.90
7167;DHT22;3625;51.762;14.320;2023-01-24T13:15:26;2.90;99.90
7167;DHT22;3625;51.762;14.320;2023-01-24T13:18:25;2.90;99.90
7167;DHT22;3625;51.762;14.320;2023-01-24T13:21:13;3.00;99.90
7167;DHT22;3625;51.762;14.320;2023-01-24T13:24:06;2.90;99.90
7167;DHT22;3625;51.762;14.320;2023-01-24T13:27:11;2.90;99.90
7167;DHT22;3625;51.762;14.320;2023-01-24T13:30:11;2.90;99.90
7167;DHT22;3625;51.762;14.320;2023-01-24T13:32:50;2.90;99.90
7167;DHT22;3625;51.762;14.320;2023-01-24T13:35:28;2.90;99.90
7167;DHT22;3625;51.762;14.320;2023-01-24T13:38:14;2.90;99.90
7167;DHT22;3625;51.762;14.320;2023-01-24T13:41:02;3.00;99.90
7167;DHT22;3625;51.762;14.320;2023-01-24T13:44:02;2.90;99.90
7167;DHT22;3625;51.762;14.320;2023-01-24T13:47:00;2.90;99.90
7167;DHT22;3625;51.762;14.320;2023-01-24T13:49:44;2.90;99.90
7167;DHT22;3625;51.762;14.320;2023-01-24T13:52:36;5.60;99.90
7167;DHT22;3625;51.762;14.320;2023-01-24T13:58:32;2.60;99.90
7167;DHT22;3625;51.762;14.320;2023-01-24T14:03:56;2.60;99.90
7167;DHT22;3625;51.762;14.320;2023-01-24T14:06:40;2.60;99.90
7167;DHT22;3625;51.762;14.320;2023-01-24T14:09:25;2.70;99.90
7167;DHT22;3625;51.762;14.320;2023-01-24T14:12:00;2.70;99.90
7167;DHT22;3625;51.762;14.320;2023-01-24T14:15:00;2.60;99.90
7167;DHT22;3625;51.762;14.320;2023-01-24T14:23:19;2.60;99.90
7167;DHT22;3625;51.762;14.320;2023-01-24T14:25:59;2.60;99.90
7167;DHT22;3625;51.762;14.320;2023-01-24T14:28:39;0.70;99.90
7167;DHT22;3625;51.762;14.320;2023-01-24T14:31:19;2.70;99.90
7167;DHT22;3625;51.762;14.320;2023-01-24T14:34:04;2.60;99.90
7167;DHT22;3625;51.762;14.320;2023-01-24T14:36:46;2.70;99.90
7167;DHT22;3625;51.762;14.320;2023-01-24T14:39:25;2.60;99.90
7167;DHT22;3625;51.762;14.320;2023-01-24T14:42:04;2.60;99.90
7167;DHT22;3625;51.762;14.320;2023-01-24T14:44:52;2.60;99.90
7167;DHT22;3625;51.762;14.320;2023-01-24T14:47:26;2.60;99.90
7167;DHT22;3625;51.762;14.320;2023-01-24T14:50:00;2.60;99.90
7167;DHT22;3625;51.762;14.320;2023-01-24T14:55:34;2.60;99.90
7167;DHT22;3625;51.762;14.320;2023-01-24T14:58:20;2.60;99.90
7167;DHT22;3625;51.762;14.320;2023-01-24T15:00:55;2.60;99.90
7167;DHT22;3625;51.762;14.320;2023-01-24T15:03:28;2.50;99.90
7167;DHT22;3625;51.762;14.320;2023-01-24T15:06:05;2.50;99.90
7167;DHT22;3625;51.762;14.320;2023-01-24T15:11:35;2.30;99.90
7167;DHT22;3625;51.762;14.320;2023-01-24T15:14:15;2.30;99.90
7167;DHT22;3625;51.762;14.320;2023-01-24T15:17:04;2.40;99.90
7167;DHT22;3625;51.762;14.320;2023-01-24T15:22:23;2.40;99.90
7167;DHT22;3625;51.762;14.320;2023-01-24T15:24:54;2.40;99.90
7167;DHT22;3625;51.762;14.320;2023-01-24T15:27:37;2.40;99.90
7167;DHT22;3625;51.762;14.320;2023-01-24T15:30:18;2.40;99.90
7167;DHT22;3625;51.762;14.320;2023-01-24T15:32:58;2.40;99.90
7167;DHT22;3625;51.762;14.320;2023-01-24T15:35:36;2.40;99.90
7167;DHT22;3625;51.762;14.320;2023-01-24T15:38:20;2.40;99.90
7167;DHT22;3625;51.762;14.320;2023-01-24T15:41:16;2.40;99.90
7167;DHT22;3625;51.762;14.320;2023-01-24T15:43:51;2.40;99.90
7167;DHT22;3625;51.762;14.320;2023-01-24T15:46:30;2.40;99.90
7167;DHT22;3625;51.762;14.320;2023-01-24T15:49:29;2.40;99.90
7167;DHT22;3625;51.762;14.320;2023-01-24T15:52:20;2.40;99.90
7167;DHT22;3625;51.762;14.320;2023-01-24T15:54:56;2.20;99.90
7167;DHT22;3625;51.762;14.320;2023-01-24T15:57:34;2.30;99.90
7167;DHT22;3625;51.762;14.320;2023-01-24T16:00:22;2.40;99.90
7167;DHT22;3625;51.762;14.320;2023-01-24T16:13:23;2.50;99.90
7167;DHT22;3625;51.762;14.320;2023-01-24T16:26:18;2.60;99.90
7167;DHT22;3625;51.762;14.320;2023-01-24T16:28:51;2.60;99.90
7167;DHT22;3625;51.762;14.320;2023-01-24T16:56:42;2.30;99.90
7167;DHT22;3625;51.762;14.320;2023-01-24T17:14:42;2.40;99.90
7167;DHT22;3625;51.762;14.320;2023-01-24T17:17:15;2.40;99.90
7167;DHT22;3625;51.762;14.320;2023-01-24T17:24:54;2.40;99.90
7167;DHT22;3625;51.762;14.320;2023-01-24T17:34:54;2.40;99.90
7167;DHT22;3625;51.762;14.320;2023-01-24T17:52:43;2.60;99.90
7167;DHT22;3625;51.762;14.320;2023-01-24T18:00:12;2.60;99.90
7167;DHT22;3625;51.762;14.320;2023-01-24T18:20:11;2.60;99.90
7167;DHT22;3625;51.762;14.320;2023-01-24T18:22:40;2.60;99.90
7167;DHT22;3625;51.762;14.320;2023-01-24T18:30:13;2.60;99.90
7167;DHT22;3625;51.762;14.320;2023-01-24T18:45:10;2.60;99.90
7167;DHT22;3625;51.762;14.320;2023-01-24T18:47:39;2.60;99.90
7167;DHT22;3625;51.762;14.320;2023-01-24T18:50:09;2.60;99.90
7167;DHT22;3625;51.762;14.320;2023-01-24T18:52:38;2.50;99.90
7167;DHT22;3625;51.762;14.320;2023-01-24T19:00:10;2.50;99.90
7167;DHT22;3625;51.762;14.320;2023-01-24T19:02:43;2.50;99.90
7167;DHT22;3625;51.762;14.320;2023-01-24T19:17:48;2.40;99.90
7167;DHT22;3625;51.762;14.320;2023-01-24T19:20:18;2.40;99.90
7167;DHT22;3625;51.762;14.320;2023-01-24T19:22:47;2.40;99.90
7167;DHT22;3625;51.762;14.320;2023-01-24T19:25:15;2.50;99.90
7167;DHT22;3625;51.762;14.320;2023-01-24T19:27:45;2.50;99.90
7167;DHT22;3625;51.762;14.320;2023-01-24T19:40:12;2.60;99.90
7167;DHT22;3625;51.762;14.320;2023-01-24T19:42:41;2.50;99.90
7167;DHT22;3625;51.762;14.320;2023-01-24T19:45:15;2.50;99.90
7167;DHT22;3625;51.762;14.320;2023-01-24T19:47:43;2.50;99.90
7167;DHT22;3625;51.762;14.320;2023-01-24T19:50:13;2.60;99.90
7167;DHT22;3625;51.762;14.320;2023-01-24T19:52:42;2.60;99.90
7167;DHT22;3625;51.762;14.320;2023-01-24T19:55:11;2.60;99.90
7167;DHT22;3625;51.762;14.320;2023-01-24T19:57:39;2.50;99.90
7167;DHT22;3625;51.762;14.320;2023-01-24T20:00:09;2.50;99.90
7167;DHT22;3625;51.762;14.320;2023-01-24T20:02:43;2.60;99.90
7167;DHT22;3625;51.762;14.320;2023-01-24T20:05:12;3.20;99.90
7167;DHT22;3625;51.762;14.320;2023-01-24T20:07:41;2.60;99.90
7167;DHT22;3625;51.762;14.320;2023-01-24T20:10:10;2.60;99.90
7167;DHT22;3625;51.762;14.320;2023-01-24T20:15:10;2.60;99.90
7167;DHT22;3625;51.762;14.320;2023-01-24T20:17:40;2.60;99.90
7167;DHT22;3625;51.762;14.320;2023-01-24T20:20:10;2.60;99.90
7167;DHT22;3625;51.762;14.320;2023-01-24T20:22:39;2.60;99.90
7167;DHT22;3625;51.762;14.320;2023-01-24T20:27:45;2.60;99.90
7167;DHT22;3625;51.762;14.320;2023-01-24T20:30:14;2.60;99.90
7167;DHT22;3625;51.762;14.320;2023-01-24T20:40:13;2.60;99.90
7167;DHT22;3625;51.762;14.320;2023-01-24T20:55:10;2.60;99.90
7167;DHT22;3625;51.762;14.320;2023-01-24T21:05:16;2.60;99.90
7167;DHT22;3625;51.762;14.320;2023-01-24T21:10:14;2.50;99.90
7167;DHT22;3625;51.762;14.320;2023-01-24T21:12:42;2.50;99.90
7167;DHT22;3625;51.762;14.320;2023-01-24T21:17:40;2.50;99.90
7167;DHT22;3625;51.762;14.320;2023-01-24T21:20:10;3.00;99.90
7167;DHT22;3625;51.762;14.320;2023-01-24T21:22:40;2.60;99.90
7167;DHT22;3625;51.762;14.320;2023-01-24T21:25:09;2.60;99.90
7167;DHT22;3625;51.762;14.320;2023-01-24T21:30:08;2.60;99.90
7167;DHT22;3625;51.762;14.320;2023-01-24T21:42:37;2.70;99.90
7167;DHT22;3625;51.762;14.320;2023-01-24T21:55:07;2.60;99.90
7167;DHT22;3625;51.762;14.320;2023-01-24T21:57:36;2.60;99.90
7167;DHT22;3625;51.762;14.320;2023-01-24T22:00:24;2.60;99.90
7167;DHT22;3625;51.762;14.320;2023-01-24T22:08:10;2.60;99.90
7167;DHT22;3625;51.762;14.320;2023-01-24T22:15:38;2.50;99.90
7167;DHT22;3625;51.762;14.320;2023-01-24T22:18:08;2.60;99.90
7167;DHT22;3625;51.762;14.320;2023-01-24T22:20:40;2.60;99.90
7167;DHT22;3625;51.762;14.320;2023-01-24T22:23:17;2.50;99.90
7167;DHT22;3625;51.762;14.320;2023-01-24T22:25:59;2.40;99.90
7167;DHT22;3625;51.762;14.320;2023-01-24T22:28:32;2.40;99.90
7167;DHT22;3625;51.762;14.320;2023-01-24T22:31:01;2.40;99.90
7167;DHT22;3625;51.762;14.320;2023-01-24T22:33:31;2.50;99.90
7167;DHT22;3625;51.762;14.320;2023-01-24T22:36:00;2.50;99.90
7167;DHT22;3625;51.762;14.320;2023-01-24T22:58:25;2.50;99.90
7167;DHT22;3625;51.762;14.320;2023-01-24T23:00:54;2.50;99.90
7167;DHT22;3625;51.762;14.320;2023-01-24T23:03:30;2.40;99.90
7167;DHT22;3625;51.762;14.320;2023-01-24T23:06:04;2.50;99.90
7167;DHT22;3625;51.762;14.320;2023-01-24T23:11:08;2.50;99.90
7167;DHT22;3625;51.762;14.320;2023-01-24T23:16:33;2.50;99.90
7167;DHT22;3625;51.762;14.320;2023-01-24T23:19:30;2.40;99.90
7167;DHT22;3625;51.762;14.320;2023-01-24T23:22:20;2.40;99.90
7167;DHT22;3625;51.762;14.320;2023-01-24T23:24:52;2.40;99.90
7167;DHT22;3625;51.762;14.320;2023-01-24T23:27:24;2.30;99.90
7167;DHT22;3625;51.762;14.320;2023-01-24T23:30:24;2.30;99.90
7167;DHT22;3625;51.762;14.320;2023-01-24T23:33:05;2.30;99.90
7167;DHT22;3625;51.762;14.320;2023-01-24T23:35:56;2.40;99.90
7167;DHT22;3625;51.762;14.320;2023-01-24T23:53:25;2.40;99.90
